sensor_id;sensor_type;location;lat;lon;timestamp;P1;durP1;ratioP1;P2;durP2;ratioP2
51738;SDS011;37815;52.692;6.226;2023-08-24T00:01:41;4.03;;;2.50;;
51738;SDS011;37815;52.692;6.226;2023-08-24T00:06:42;3.42;;;2.42;;
51738;SDS011;37815;52.692;6.226;2023-08-24T00:11:43;3.50;;;2.70;;
51738;SDS011;37815;52.692;6.226;2023-08-24T00:16:43;3.40;;;2.47;;
51738;SDS011;37815;52.692;6.226;2023-08-24T00:21:44;2.95;;;2.53;;
51738;SDS011;37815;52.692;6.226;2023-08-24T00:26:45;3.93;;;2.50;;
51738;SDS011;37815;52.692;6.226;2023-08-24T00:31:45;3.42;;;2.40;;
51738;SDS011;37815;52.692;6.226;2023-08-24T00:36:46;3.60;;;2.60;;
51738;SDS011;37815;52.692;6.226;2023-08-24T00:41:47;3.47;;;2.50;;
51738;SDS011;37815;52.692;6.226;2023-08-24T00:46:47;3.03;;;2.57;;
51738;SDS011;37815;52.692;6.226;2023-08-24T00:51:48;3.03;;;2.40;;
51738;SDS011;37815;52.692;6.226;2023-08-24T00:56:49;3.50;;;2.57;;
51738;SDS011;37815;52.692;6.226;2023-08-24T01:01:50;4.67;;;2.40;;
51738;SDS011;37815;52.692;6.226;2023-08-24T01:06:51;2.90;;;2.60;;
51738;SDS011;37815;52.692;6.226;2023-08-24T01:12:05;3.37;;;2.40;;
51738;SDS011;37815;52.692;6.226;2023-08-24T01:17:13;3.80;;;2.60;;
51738;SDS011;37815;52.692;6.226;2023-08-24T01:27:44;3.20;;;2.33;;
51738;SDS011;37815;52.692;6.226;2023-08-24T01:32:47;3.13;;;2.35;;
51738;SDS011;37815;52.692;6.226;2023-08-24T01:37:49;3.80;;;2.67;;
51738;SDS011;37815;52.692;6.226;2023-08-24T01:43:01;3.93;;;2.70;;
51738;SDS011;37815;52.692;6.226;2023-08-24T01:48:05;3.58;;;2.55;;
51738;SDS011;37815;52.692;6.226;2023-08-24T01:53:06;4.20;;;2.70;;
51738;SDS011;37815;52.692;6.226;2023-08-24T01:58:07;3.40;;;2.67;;
51738;SDS011;37815;52.692;6.226;2023-08-24T02:03:08;3.13;;;2.70;;
51738;SDS011;37815;52.692;6.226;2023-08-24T02:08:09;2.90;;;2.55;;
51738;SDS011;37815;52.692;6.226;2023-08-24T02:13:09;3.42;;;2.50;;
51738;SDS011;37815;52.692;6.226;2023-08-24T02:18:10;4.37;;;2.60;;
51738;SDS011;37815;52.692;6.226;2023-08-24T02:23:11;4.07;;;2.70;;
51738;SDS011;37815;52.692;6.226;2023-08-24T02:28:11;3.80;;;2.60;;
51738;SDS011;37815;52.692;6.226;2023-08-24T02:33:12;3.57;;;2.70;;
51738;SDS011;37815;52.692;6.226;2023-08-24T02:38:12;3.47;;;2.60;;
51738;SDS011;37815;52.692;6.226;2023-08-24T02:43:13;3.60;;;2.78;;
51738;SDS011;37815;52.692;6.226;2023-08-24T02:48:14;3.80;;;2.50;;
51738;SDS011;37815;52.692;6.226;2023-08-24T02:53:14;3.40;;;2.80;;
51738;SDS011;37815;52.692;6.226;2023-08-24T02:58:15;3.93;;;2.80;;
51738;SDS011;37815;52.692;6.226;2023-08-24T03:03:16;3.43;;;2.60;;
51738;SDS011;37815;52.692;6.226;2023-08-24T03:08:17;3.05;;;2.60;;
51738;SDS011;37815;52.692;6.226;2023-08-24T03:13:17;3.67;;;2.60;;
51738;SDS011;37815;52.692;6.226;2023-08-24T03:18:18;3.60;;;2.63;;
51738;SDS011;37815;52.692;6.226;2023-08-24T03:23:19;3.78;;;2.90;;
51738;SDS011;37815;52.692;6.226;2023-08-24T03:28:19;4.78;;;3.20;;
51738;SDS011;37815;52.692;6.226;2023-08-24T03:33:20;4.43;;;3.00;;
51738;SDS011;37815;52.692;6.226;2023-08-24T03:38:21;4.72;;;2.95;;
51738;SDS011;37815;52.692;6.226;2023-08-24T03:43:22;4.55;;;2.97;;
51738;SDS011;37815;52.692;6.226;2023-08-24T03:48:23;3.70;;;2.90;;
51738;SDS011;37815;52.692;6.226;2023-08-24T03:53:24;4.67;;;2.90;;
51738;SDS011;37815;52.692;6.226;2023-08-24T03:58:24;5.67;;;3.13;;
51738;SDS011;37815;52.692;6.226;2023-08-24T04:03:25;3.47;;;2.80;;
51738;SDS011;37815;52.692;6.226;2023-08-24T04:08:26;5.00;;;3.10;;
51738;SDS011;37815;52.692;6.226;2023-08-24T04:13:26;4.00;;;3.00;;
51738;SDS011;37815;52.692;6.226;2023-08-24T04:18:27;4.50;;;3.10;;
51738;SDS011;37815;52.692;6.226;2023-08-24T04:23:27;4.65;;;3.03;;
51738;SDS011;37815;52.692;6.226;2023-08-24T04:28:28;5.90;;;3.30;;
51738;SDS011;37815;52.692;6.226;2023-08-24T04:33:29;4.10;;;3.10;;
51738;SDS011;37815;52.692;6.226;2023-08-24T04:38:29;3.67;;;3.00;;
51738;SDS011;37815;52.692;6.226;2023-08-24T04:43:30;4.57;;;3.40;;
51738;SDS011;37815;52.692;6.226;2023-08-24T04:48:31;4.07;;;2.90;;
51738;SDS011;37815;52.692;6.226;2023-08-24T04:53:32;4.22;;;3.20;;
51738;SDS011;37815;52.692;6.226;2023-08-24T04:58:33;4.30;;;3.00;;
51738;SDS011;37815;52.692;6.226;2023-08-24T05:03:34;3.92;;;2.97;;
51738;SDS011;37815;52.692;6.226;2023-08-24T05:08:35;4.72;;;3.38;;
51738;SDS011;37815;52.692;6.226;2023-08-24T05:13:35;4.63;;;3.20;;
51738;SDS011;37815;52.692;6.226;2023-08-24T05:18:36;4.30;;;3.27;;
51738;SDS011;37815;52.692;6.226;2023-08-24T05:23:36;4.80;;;3.40;;
51738;SDS011;37815;52.692;6.226;2023-08-24T05:28:37;4.47;;;3.30;;
51738;SDS011;37815;52.692;6.226;2023-08-24T05:33:38;4.03;;;3.30;;
51738;SDS011;37815;52.692;6.226;2023-08-24T05:38:38;3.77;;;3.13;;
51738;SDS011;37815;52.692;6.226;2023-08-24T05:43:44;4.93;;;3.33;;
51738;SDS011;37815;52.692;6.226;2023-08-24T05:48:45;4.50;;;3.40;;
51738;SDS011;37815;52.692;6.226;2023-08-24T05:53:46;4.33;;;3.37;;
51738;SDS011;37815;52.692;6.226;2023-08-24T05:58:46;3.97;;;3.40;;
51738;SDS011;37815;52.692;6.226;2023-08-24T06:03:47;5.67;;;3.70;;
51738;SDS011;37815;52.692;6.226;2023-08-24T06:08:49;4.13;;;3.50;;
51738;SDS011;37815;52.692;6.226;2023-08-24T06:13:49;4.50;;;3.07;;
51738;SDS011;37815;52.692;6.226;2023-08-24T06:18:52;4.88;;;3.67;;
51738;SDS011;37815;52.692;6.226;2023-08-24T06:23:52;4.05;;;3.40;;
51738;SDS011;37815;52.692;6.226;2023-08-24T06:28:53;4.47;;;3.47;;
51738;SDS011;37815;52.692;6.226;2023-08-24T06:33:55;5.00;;;3.50;;
51738;SDS011;37815;52.692;6.226;2023-08-24T06:38:56;5.60;;;3.83;;
51738;SDS011;37815;52.692;6.226;2023-08-24T06:43:58;4.95;;;3.72;;
51738;SDS011;37815;52.692;6.226;2023-08-24T06:48:59;4.82;;;3.70;;
51738;SDS011;37815;52.692;6.226;2023-08-24T06:54:00;4.30;;;3.47;;
51738;SDS011;37815;52.692;6.226;2023-08-24T06:59:00;4.78;;;3.42;;
51738;SDS011;37815;52.692;6.226;2023-08-24T07:04:01;4.28;;;3.70;;
51738;SDS011;37815;52.692;6.226;2023-08-24T07:09:02;4.75;;;3.90;;
51738;SDS011;37815;52.692;6.226;2023-08-24T07:14:06;4.43;;;3.90;;
51738;SDS011;37815;52.692;6.226;2023-08-24T07:19:07;4.00;;;3.60;;
51738;SDS011;37815;52.692;6.226;2023-08-24T07:24:08;4.20;;;3.80;;
51738;SDS011;37815;52.692;6.226;2023-08-24T07:29:09;4.10;;;3.70;;
51738;SDS011;37815;52.692;6.226;2023-08-24T07:34:10;4.83;;;3.90;;
51738;SDS011;37815;52.692;6.226;2023-08-24T07:39:10;5.07;;;4.03;;
51738;SDS011;37815;52.692;6.226;2023-08-24T07:44:11;4.80;;;4.10;;
51738;SDS011;37815;52.692;6.226;2023-08-24T07:49:12;4.90;;;4.40;;
51738;SDS011;37815;52.692;6.226;2023-08-24T07:54:13;4.53;;;4.13;;
51738;SDS011;37815;52.692;6.226;2023-08-24T07:59:14;4.43;;;4.00;;
51738;SDS011;37815;52.692;6.226;2023-08-24T08:04:15;5.00;;;4.50;;
51738;SDS011;37815;52.692;6.226;2023-08-24T08:09:15;5.40;;;4.57;;
51738;SDS011;37815;52.692;6.226;2023-08-24T08:14:16;5.53;;;4.70;;
51738;SDS011;37815;52.692;6.226;2023-08-24T08:19:17;5.20;;;4.70;;
51738;SDS011;37815;52.692;6.226;2023-08-24T08:24:19;5.68;;;4.70;;
51738;SDS011;37815;52.692;6.226;2023-08-24T08:29:20;6.30;;;4.88;;
51738;SDS011;37815;52.692;6.226;2023-08-24T08:34:20;5.37;;;4.87;;
51738;SDS011;37815;52.692;6.226;2023-08-24T08:39:21;6.53;;;5.20;;
51738;SDS011;37815;52.692;6.226;2023-08-24T08:44:22;6.00;;;5.40;;
51738;SDS011;37815;52.692;6.226;2023-08-24T08:49:24;5.67;;;5.00;;
51738;SDS011;37815;52.692;6.226;2023-08-24T08:54:25;5.60;;;5.05;;
51738;SDS011;37815;52.692;6.226;2023-08-24T08:59:26;6.00;;;5.00;;
51738;SDS011;37815;52.692;6.226;2023-08-24T09:04:32;6.50;;;5.40;;
51738;SDS011;37815;52.692;6.226;2023-08-24T09:09:36;5.75;;;5.20;;
51738;SDS011;37815;52.692;6.226;2023-08-24T09:14:38;5.90;;;5.30;;
51738;SDS011;37815;52.692;6.226;2023-08-24T09:19:41;6.18;;;5.43;;
51738;SDS011;37815;52.692;6.226;2023-08-24T09:24:42;6.67;;;5.80;;
51738;SDS011;37815;52.692;6.226;2023-08-24T09:29:46;6.20;;;5.50;;
51738;SDS011;37815;52.692;6.226;2023-08-24T09:34:49;6.43;;;5.82;;
51738;SDS011;37815;52.692;6.226;2023-08-24T09:39:50;7.65;;;5.93;;
51738;SDS011;37815;52.692;6.226;2023-08-24T09:45:04;6.50;;;5.90;;
51738;SDS011;37815;52.692;6.226;2023-08-24T09:50:06;6.75;;;6.05;;
51738;SDS011;37815;52.692;6.226;2023-08-24T09:55:08;7.47;;;6.15;;
51738;SDS011;37815;52.692;6.226;2023-08-24T10:00:10;7.73;;;6.20;;
51738;SDS011;37815;52.692;6.226;2023-08-24T10:05:11;7.00;;;6.30;;
51738;SDS011;37815;52.692;6.226;2023-08-24T10:10:18;7.10;;;6.40;;
51738;SDS011;37815;52.692;6.226;2023-08-24T10:15:21;7.70;;;6.37;;
51738;SDS011;37815;52.692;6.226;2023-08-24T10:20:26;7.30;;;6.32;;
51738;SDS011;37815;52.692;6.226;2023-08-24T10:25:27;7.40;;;6.60;;
51738;SDS011;37815;52.692;6.226;2023-08-24T10:30:28;7.35;;;6.55;;
51738;SDS011;37815;52.692;6.226;2023-08-24T10:35:30;7.13;;;6.43;;
51738;SDS011;37815;52.692;6.226;2023-08-24T10:40:33;8.57;;;6.15;;
51738;SDS011;37815;52.692;6.226;2023-08-24T10:56:14;8.50;;;7.20;;
51738;SDS011;37815;52.692;6.226;2023-08-24T11:01:17;8.63;;;6.90;;
51738;SDS011;37815;52.692;6.226;2023-08-24T11:06:19;8.35;;;6.95;;
51738;SDS011;37815;52.692;6.226;2023-08-24T11:11:28;7.70;;;6.90;;
51738;SDS011;37815;52.692;6.226;2023-08-24T11:16:38;8.33;;;7.53;;
51738;SDS011;37815;52.692;6.226;2023-08-24T11:21:40;8.63;;;7.18;;
51738;SDS011;37815;52.692;6.226;2023-08-24T11:26:43;8.13;;;7.37;;
51738;SDS011;37815;52.692;6.226;2023-08-24T11:31:45;9.07;;;7.80;;
51738;SDS011;37815;52.692;6.226;2023-08-24T11:36:47;9.18;;;8.25;;
51738;SDS011;37815;52.692;6.226;2023-08-24T11:41:59;8.68;;;7.88;;
51738;SDS011;37815;52.692;6.226;2023-08-24T11:47:03;9.00;;;8.15;;
51738;SDS011;37815;52.692;6.226;2023-08-24T11:52:05;9.10;;;8.25;;
51738;SDS011;37815;52.692;6.226;2023-08-24T11:57:06;8.80;;;7.90;;
51738;SDS011;37815;52.692;6.226;2023-08-24T12:02:08;10.43;;;8.90;;
51738;SDS011;37815;52.692;6.226;2023-08-24T12:07:11;9.52;;;8.43;;
51738;SDS011;37815;52.692;6.226;2023-08-24T12:12:13;8.87;;;7.90;;
51738;SDS011;37815;52.692;6.226;2023-08-24T12:17:15;9.20;;;8.30;;
51738;SDS011;37815;52.692;6.226;2023-08-24T12:22:16;10.07;;;8.38;;
51738;SDS011;37815;52.692;6.226;2023-08-24T12:27:18;9.23;;;8.27;;
51738;SDS011;37815;52.692;6.226;2023-08-24T12:32:20;9.13;;;8.23;;
51738;SDS011;37815;52.692;6.226;2023-08-24T12:37:23;10.13;;;8.30;;
51738;SDS011;37815;52.692;6.226;2023-08-24T12:42:23;9.57;;;8.57;;
51738;SDS011;37815;52.692;6.226;2023-08-24T12:47:24;9.57;;;8.47;;
51738;SDS011;37815;52.692;6.226;2023-08-24T12:52:25;9.98;;;8.32;;
51738;SDS011;37815;52.692;6.226;2023-08-24T12:57:26;10.80;;;8.70;;
51738;SDS011;37815;52.692;6.226;2023-08-24T13:02:27;9.23;;;8.23;;
51738;SDS011;37815;52.692;6.226;2023-08-24T13:07:27;9.50;;;8.53;;
51738;SDS011;37815;52.692;6.226;2023-08-24T13:12:28;9.97;;;8.97;;
51738;SDS011;37815;52.692;6.226;2023-08-24T13:17:30;11.17;;;8.60;;
51738;SDS011;37815;52.692;6.226;2023-08-24T13:22:30;9.98;;;8.38;;
51738;SDS011;37815;52.692;6.226;2023-08-24T13:27:31;9.35;;;8.30;;
51738;SDS011;37815;52.692;6.226;2023-08-24T13:32:32;9.60;;;8.27;;
51738;SDS011;37815;52.692;6.226;2023-08-24T13:37:32;9.30;;;7.87;;
51738;SDS011;37815;52.692;6.226;2023-08-24T13:42:40;8.85;;;7.65;;
51738;SDS011;37815;52.692;6.226;2023-08-24T13:47:40;10.88;;;7.85;;
51738;SDS011;37815;52.692;6.226;2023-08-24T13:52:41;8.70;;;7.80;;
51738;SDS011;37815;52.692;6.226;2023-08-24T13:57:42;9.10;;;7.70;;
51738;SDS011;37815;52.692;6.226;2023-08-24T14:02:43;8.83;;;7.60;;
51738;SDS011;37815;52.692;6.226;2023-08-24T14:07:44;8.80;;;7.33;;
51738;SDS011;37815;52.692;6.226;2023-08-24T14:12:45;8.30;;;7.40;;
51738;SDS011;37815;52.692;6.226;2023-08-24T14:17:48;8.18;;;7.38;;
51738;SDS011;37815;52.692;6.226;2023-08-24T14:22:49;8.10;;;7.30;;
51738;SDS011;37815;52.692;6.226;2023-08-24T14:27:50;8.73;;;7.82;;
51738;SDS011;37815;52.692;6.226;2023-08-24T14:32:50;8.33;;;7.53;;
51738;SDS011;37815;52.692;6.226;2023-08-24T14:37:51;8.50;;;7.70;;
51738;SDS011;37815;52.692;6.226;2023-08-24T14:42:51;8.47;;;7.63;;
51738;SDS011;37815;52.692;6.226;2023-08-24T14:47:53;8.70;;;7.60;;
51738;SDS011;37815;52.692;6.226;2023-08-24T14:52:54;8.73;;;7.80;;
51738;SDS011;37815;52.692;6.226;2023-08-24T14:57:54;8.55;;;7.70;;
51738;SDS011;37815;52.692;6.226;2023-08-24T15:02:56;8.82;;;7.75;;
51738;SDS011;37815;52.692;6.226;2023-08-24T15:07:57;8.20;;;7.40;;
51738;SDS011;37815;52.692;6.226;2023-08-24T15:12:58;8.23;;;7.35;;
51738;SDS011;37815;52.692;6.226;2023-08-24T15:17:58;8.73;;;7.83;;
51738;SDS011;37815;52.692;6.226;2023-08-24T15:22:59;7.90;;;7.20;;
51738;SDS011;37815;52.692;6.226;2023-08-24T15:28:00;8.10;;;7.30;;
51738;SDS011;37815;52.692;6.226;2023-08-24T15:33:00;8.20;;;7.30;;
51738;SDS011;37815;52.692;6.226;2023-08-24T15:38:01;8.17;;;7.37;;
51738;SDS011;37815;52.692;6.226;2023-08-24T15:43:03;8.60;;;7.50;;
51738;SDS011;37815;52.692;6.226;2023-08-24T15:48:04;8.45;;;7.30;;
51738;SDS011;37815;52.692;6.226;2023-08-24T15:53:05;9.03;;;8.17;;
51738;SDS011;37815;52.692;6.226;2023-08-24T15:58:06;8.77;;;7.87;;
51738;SDS011;37815;52.692;6.226;2023-08-24T16:03:07;8.27;;;7.47;;
51738;SDS011;37815;52.692;6.226;2023-08-24T16:08:07;8.60;;;7.50;;
51738;SDS011;37815;52.692;6.226;2023-08-24T16:13:08;8.50;;;7.60;;
51738;SDS011;37815;52.692;6.226;2023-08-24T16:18:09;11.23;;;7.78;;
51738;SDS011;37815;52.692;6.226;2023-08-24T16:23:09;9.70;;;8.30;;
51738;SDS011;37815;52.692;6.226;2023-08-24T16:28:12;9.07;;;8.00;;
51738;SDS011;37815;52.692;6.226;2023-08-24T16:33:13;8.47;;;7.43;;
51738;SDS011;37815;52.692;6.226;2023-08-24T16:38:14;9.20;;;8.18;;
51738;SDS011;37815;52.692;6.226;2023-08-24T16:43:15;8.98;;;8.07;;
51738;SDS011;37815;52.692;6.226;2023-08-24T16:48:16;8.90;;;8.00;;
51738;SDS011;37815;52.692;6.226;2023-08-24T16:53:16;8.70;;;7.80;;
51738;SDS011;37815;52.692;6.226;2023-08-24T16:58:17;9.68;;;7.68;;
51738;SDS011;37815;52.692;6.226;2023-08-24T17:03:18;8.88;;;7.97;;
51738;SDS011;37815;52.692;6.226;2023-08-24T17:08:19;9.07;;;8.18;;
51738;SDS011;37815;52.692;6.226;2023-08-24T17:13:19;9.70;;;8.20;;
51738;SDS011;37815;52.692;6.226;2023-08-24T17:18:20;8.90;;;8.00;;
51738;SDS011;37815;52.692;6.226;2023-08-24T17:23:21;9.25;;;8.40;;
51738;SDS011;37815;52.692;6.226;2023-08-24T17:28:21;9.03;;;8.13;;
51738;SDS011;37815;52.692;6.226;2023-08-24T17:33:22;9.17;;;8.27;;
51738;SDS011;37815;52.692;6.226;2023-08-24T17:38:23;8.70;;;7.90;;
51738;SDS011;37815;52.692;6.226;2023-08-24T17:43:23;8.87;;;7.97;;
51738;SDS011;37815;52.692;6.226;2023-08-24T17:48:24;11.40;;;9.30;;
51738;SDS011;37815;52.692;6.226;2023-08-24T17:53:25;10.00;;;9.00;;
51738;SDS011;37815;52.692;6.226;2023-08-24T17:58:29;9.27;;;8.27;;
51738;SDS011;37815;52.692;6.226;2023-08-24T18:03:30;10.32;;;8.65;;
51738;SDS011;37815;52.692;6.226;2023-08-24T18:08:31;9.30;;;8.40;;
51738;SDS011;37815;52.692;6.226;2023-08-24T18:13:32;9.50;;;8.50;;
51738;SDS011;37815;52.692;6.226;2023-08-24T18:18:33;9.60;;;8.60;;
51738;SDS011;37815;52.692;6.226;2023-08-24T18:23:34;10.63;;;8.83;;
51738;SDS011;37815;52.692;6.226;2023-08-24T18:28:35;8.77;;;7.90;;
51738;SDS011;37815;52.692;6.226;2023-08-24T18:33:36;9.43;;;7.93;;
51738;SDS011;37815;52.692;6.226;2023-08-24T18:38:36;9.60;;;8.30;;
51738;SDS011;37815;52.692;6.226;2023-08-24T18:43:37;9.43;;;8.33;;
51738;SDS011;37815;52.692;6.226;2023-08-24T18:48:38;8.40;;;7.60;;
51738;SDS011;37815;52.692;6.226;2023-08-24T18:53:38;8.90;;;8.00;;
51738;SDS011;37815;52.692;6.226;2023-08-24T18:58:39;8.77;;;7.87;;
51738;SDS011;37815;52.692;6.226;2023-08-24T19:03:40;8.80;;;7.90;;
51738;SDS011;37815;52.692;6.226;2023-08-24T19:08:41;8.77;;;7.97;;
51738;SDS011;37815;52.692;6.226;2023-08-24T19:13:42;8.70;;;7.80;;
51738;SDS011;37815;52.692;6.226;2023-08-24T19:18:44;8.95;;;8.05;;
51738;SDS011;37815;52.692;6.226;2023-08-24T19:23:44;9.60;;;8.60;;
51738;SDS011;37815;52.692;6.226;2023-08-24T19:28:45;9.30;;;8.40;;
51738;SDS011;37815;52.692;6.226;2023-08-24T19:33:45;9.00;;;8.10;;
51738;SDS011;37815;52.692;6.226;2023-08-24T19:38:46;9.07;;;8.17;;
51738;SDS011;37815;52.692;6.226;2023-08-24T19:43:47;9.10;;;8.30;;
51738;SDS011;37815;52.692;6.226;2023-08-24T19:48:48;9.48;;;8.60;;
51738;SDS011;37815;52.692;6.226;2023-08-24T19:53:49;9.40;;;8.40;;
51738;SDS011;37815;52.692;6.226;2023-08-24T19:58:49;9.17;;;8.37;;
51738;SDS011;37815;52.692;6.226;2023-08-24T20:03:56;9.70;;;8.80;;
51738;SDS011;37815;52.692;6.226;2023-08-24T20:08:57;10.10;;;9.17;;
51738;SDS011;37815;52.692;6.226;2023-08-24T20:13:58;10.07;;;9.13;;
51738;SDS011;37815;52.692;6.226;2023-08-24T20:18:59;9.95;;;8.95;;
51738;SDS011;37815;52.692;6.226;2023-08-24T20:24:00;10.02;;;9.07;;
51738;SDS011;37815;52.692;6.226;2023-08-24T20:29:01;10.70;;;9.60;;
51738;SDS011;37815;52.692;6.226;2023-08-24T20:34:02;10.43;;;9.32;;
51738;SDS011;37815;52.692;6.226;2023-08-24T20:39:03;10.57;;;9.47;;
51738;SDS011;37815;52.692;6.226;2023-08-24T20:44:09;10.32;;;9.32;;
51738;SDS011;37815;52.692;6.226;2023-08-24T20:49:10;11.47;;;10.30;;
51738;SDS011;37815;52.692;6.226;2023-08-24T20:54:10;11.00;;;9.77;;
51738;SDS011;37815;52.692;6.226;2023-08-24T20:59:11;10.60;;;9.50;;
51738;SDS011;37815;52.692;6.226;2023-08-24T21:04:32;10.25;;;9.25;;
51738;SDS011;37815;52.692;6.226;2023-08-24T21:09:33;10.88;;;9.80;;
51738;SDS011;37815;52.692;6.226;2023-08-24T21:14:34;10.83;;;9.70;;
51738;SDS011;37815;52.692;6.226;2023-08-24T21:19:36;11.10;;;9.90;;
51738;SDS011;37815;52.692;6.226;2023-08-24T21:24:36;11.30;;;10.10;;
51738;SDS011;37815;52.692;6.226;2023-08-24T21:29:37;11.37;;;10.17;;
51738;SDS011;37815;52.692;6.226;2023-08-24T21:34:39;10.93;;;9.82;;
51738;SDS011;37815;52.692;6.226;2023-08-24T21:39:40;11.33;;;10.23;;
51738;SDS011;37815;52.692;6.226;2023-08-24T21:44:41;11.37;;;10.23;;
51738;SDS011;37815;52.692;6.226;2023-08-24T21:49:43;10.70;;;9.70;;
51738;SDS011;37815;52.692;6.226;2023-08-24T21:54:44;10.90;;;9.80;;
51738;SDS011;37815;52.692;6.226;2023-08-24T21:59:45;11.57;;;10.38;;
51738;SDS011;37815;52.692;6.226;2023-08-24T22:04:46;11.27;;;10.27;;
51738;SDS011;37815;52.692;6.226;2023-08-24T22:09:47;11.82;;;10.73;;
51738;SDS011;37815;52.692;6.226;2023-08-24T22:14:47;11.80;;;10.60;;
51738;SDS011;37815;52.692;6.226;2023-08-24T22:19:48;12.07;;;10.88;;
51738;SDS011;37815;52.692;6.226;2023-08-24T22:24:49;11.98;;;10.77;;
51738;SDS011;37815;52.692;6.226;2023-08-24T22:29:50;11.85;;;10.73;;
51738;SDS011;37815;52.692;6.226;2023-08-24T22:34:50;12.10;;;10.90;;
51738;SDS011;37815;52.692;6.226;2023-08-24T22:39:51;12.37;;;11.17;;
51738;SDS011;37815;52.692;6.226;2023-08-24T22:44:52;11.90;;;10.70;;
51738;SDS011;37815;52.692;6.226;2023-08-24T22:49:55;12.10;;;10.90;;
51738;SDS011;37815;52.692;6.226;2023-08-24T22:54:57;12.27;;;11.10;;
51738;SDS011;37815;52.692;6.226;2023-08-24T22:59:58;11.80;;;10.70;;
51738;SDS011;37815;52.692;6.226;2023-08-24T23:04:59;13.02;;;11.73;;
51738;SDS011;37815;52.692;6.226;2023-08-24T23:10:02;12.52;;;11.32;;
51738;SDS011;37815;52.692;6.226;2023-08-24T23:15:06;12.68;;;11.48;;
51738;SDS011;37815;52.692;6.226;2023-08-24T23:20:10;13.00;;;11.75;;
51738;SDS011;37815;52.692;6.226;2023-08-24T23:25:11;13.50;;;12.20;;
51738;SDS011;37815;52.692;6.226;2023-08-24T23:30:12;12.65;;;11.45;;
51738;SDS011;37815;52.692;6.226;2023-08-24T23:35:13;12.70;;;11.50;;
51738;SDS011;37815;52.692;6.226;2023-08-24T23:40:14;13.13;;;11.83;;
51738;SDS011;37815;52.692;6.226;2023-08-24T23:45:14;12.83;;;11.53;;
51738;SDS011;37815;52.692;6.226;2023-08-24T23:50:16;13.43;;;12.00;;
51738;SDS011;37815;52.692;6.226;2023-08-24T23:55:17;13.40;;;12.10;;
